Time;durP1;ratioP1;P1;durP2;ratioP2;P2;SDS_P1;SDS_P2;PMS_P1;PMS_P2;Temp;Humidity;BMP_temperature;BMP_pressure;BME280_temperature;BME280_humidity;BME280_pressure;Samples;Min_cycle;Max_cycle;Signal;HPM_P1;HPM_P2
2023/08/01 00:02:00;;;;;;;;;;;;;;;-140.72;100.00;52802.78;5093406;28;19924;-67
2023/08/01 00:04:26;;;;;;;;;;;;;;;-140.72;100.00;52784.53;5092877;28;19916;-67
2023/08/01 00:06:51;;;;;;;;;;;;;;;-140.72;100.00;52776.41;5091276;28;20377;-68
2023/08/01 00:09:16;;;;;;;;;;;;;;;-140.72;100.00;52817.00;5093446;28;19923;-67
2023/08/01 00:11:41;;;;;;;;;;;;;;;-140.72;100.00;52784.53;5093013;28;20003;-68
2023/08/01 00:14:07;;;;;;;;;;;;;;;-140.72;100.00;52798.72;5091552;28;19923;-68
2023/08/01 00:16:32;;;;;;;;;;;;;;;-140.72;100.00;52780.47;5089879;28;19916;-68
2023/08/01 00:18:57;;;;;;;;;;;;;;;-140.72;100.00;52764.25;5090896;28;19917;-68
2023/08/01 00:21:23;;;;;;;;;;;;;;;-140.72;100.00;52784.53;5087613;28;19916;-68
2023/08/01 00:23:48;;;;;;;;;;;;;;;-140.72;100.00;52808.88;5092670;28;19920;-68
2023/08/01 00:26:13;;;;;;;;;;;;;;;-140.72;100.00;52784.53;5081571;28;20354;-68
2023/08/01 00:28:38;;;;;;;;;;;;;;;-140.72;100.00;52768.28;5084948;28;19924;-68
2023/08/01 00:31:04;;;;;;;;;;;;;;;-140.72;100.00;52810.91;5096919;28;19928;-68
2023/08/01 00:33:30;;;;;;;;;;;;;;;-140.72;100.00;52790.63;5093248;28;19916;-67
2023/08/01 00:35:55;;;;;;;;;;;;;;;-140.72;100.00;52835.25;5091711;28;19923;-68
2023/08/01 00:38:20;;;;;;;;;;;;;;;-140.72;100.00;52843.38;5082129;28;19926;-68
2023/08/01 00:40:46;;;;;;;;;;;;;;;-140.72;100.00;52790.63;5086980;28;20358;-68
2023/08/01 00:43:12;;;;;;;;;;;;;;;-140.72;100.00;52812.94;5087947;28;20019;-68
2023/08/01 00:45:37;;;;;;;;;;;;;;;-140.72;100.00;52784.53;5087719;28;20015;-68
2023/08/01 00:48:02;;;;;;;;;;;;;;;-140.72;100.00;52804.81;5092981;28;19919;-68
2023/08/01 00:50:28;;;;;;;;;;;;;;;-140.72;100.00;52798.72;5092826;28;20288;-68
2023/08/01 00:52:53;;;;;;;;;;;;;;;-140.72;100.00;52817.00;5094339;28;19985;-68
2023/08/01 00:55:19;;;;;;;;;;;;;;;-140.72;100.00;52812.94;5096433;28;19998;-68
2023/08/01 00:57:44;;;;;;;;;;;;;;;-140.72;100.00;52798.72;5097061;28;19959;-68
2023/08/01 01:00:10;;;;;;;;;;;;;;;-140.72;100.00;52794.69;5096577;28;19955;-68
2023/08/01 01:02:35;;;;;;;;;;;;;;;-140.72;100.00;52800.75;5096292;28;20011;-68
2023/08/01 01:05:02;;;;;;;;;;;;;;;-140.72;100.00;52835.25;5095531;28;19973;-68
2023/08/01 01:07:28;;;;;;;;;;;;;;;-140.72;100.00;52796.72;5096525;28;19920;-68
2023/08/01 01:09:53;;;;;;;;;;;;;;;-140.72;100.00;52780.47;5095819;28;20423;-67
2023/08/01 01:12:18;;;;;;;;;;;;;;;-140.72;100.00;52810.91;5094582;28;19965;-68
2023/08/01 01:14:43;;;;;;;;;;;;;;;-140.72;100.00;52768.28;5092253;28;19923;-68
2023/08/01 01:17:09;;;;;;;;;;;;;;;-140.72;100.00;52806.84;5095518;28;19916;-67
2023/08/01 01:19:34;;;;;;;;;;;;;;;-140.72;100.00;52788.59;5085669;28;20014;-67
2023/08/01 01:21:59;;;;;;;;;;;;;;;-140.72;100.00;52819.03;5086484;28;19917;-68
2023/08/01 01:24:26;;;;;;;;;;;;;;;-140.72;100.00;52819.03;5091058;28;19948;-68
2023/08/01 01:26:52;;;;;;;;;;;;;;;-140.72;100.00;52833.22;5072402;28;20072;-68
2023/08/01 01:29:18;;;;;;;;;;;;;;;-140.72;100.00;52780.47;5085013;28;19917;-68
2023/08/01 01:31:43;;;;;;;;;;;;;;;-140.72;100.00;52796.72;5084982;28;20060;-68
2023/08/01 01:34:08;;;;;;;;;;;;;;;-140.72;100.00;52817.00;5078933;28;19917;-68
2023/08/01 01:36:34;;;;;;;;;;;;;;;-140.72;100.00;52776.41;5080768;28;20492;-68
2023/08/01 01:38:59;;;;;;;;;;;;;;;-140.72;100.00;52788.59;5096577;28;19916;-68
2023/08/01 01:41:26;;;;;;;;;;;;;;;-140.72;100.00;52768.28;5067192;28;20488;-68
2023/08/01 01:43:51;;;;;;;;;;;;;;;-140.72;100.00;52817.00;5082695;28;19920;-67
2023/08/01 01:46:17;;;;;;;;;;;;;;;-140.72;100.00;52812.94;5085101;28;19916;-68
2023/08/01 01:48:42;;;;;;;;;;;;;;;-140.72;100.00;52776.41;5068567;28;19962;-67
2023/08/01 01:51:07;;;;;;;;;;;;;;;-140.72;100.00;52788.59;5077044;28;19920;-67
2023/08/01 01:53:33;;;;;;;;;;;;;;;-140.72;100.00;52812.94;5093335;28;19928;-69
2023/08/01 01:55:58;;;;;;;;;;;;;;;-140.72;100.00;52796.72;5073924;28;19927;-68
2023/08/01 01:58:23;;;;;;;;;;;;;;;-140.72;100.00;52808.88;5084927;28;19916;-68
2023/08/01 02:00:49;;;;;;;;;;;;;;;-140.72;100.00;52770.31;5095667;28;19923;-68
2023/08/01 02:03:14;;;;;;;;;;;;;;;-140.72;100.00;52833.22;5095321;28;19916;-68
2023/08/01 02:05:40;;;;;;;;;;;;;;;-140.72;100.00;52798.72;5086980;28;19917;-67
2023/08/01 02:08:05;;;;;;;;;;;;;;;-140.72;100.00;52790.63;5092760;28;19962;-67
2023/08/01 02:10:30;;;;;;;;;;;;;;;-140.72;100.00;52823.09;5078900;28;19943;-67
2023/08/01 02:12:56;;;;;;;;;;;;;;;-140.72;100.00;52794.69;5072784;28;20046;-67
2023/08/01 02:15:21;;;;;;;;;;;;;;;-140.72;100.00;52780.47;5078372;28;19920;-67
2023/08/01 02:17:46;;;;;;;;;;;;;;;-140.72;100.00;52752.06;5082678;28;19916;-67
2023/08/01 02:20:11;;;;;;;;;;;;;;;-140.72;100.00;52810.91;5094644;28;19967;-67
2023/08/01 02:22:36;;;;;;;;;;;;;;;-140.72;100.00;52764.25;5083964;28;19916;-68
2023/08/01 02:25:02;;;;;;;;;;;;;;;-140.72;100.00;52831.19;5086945;28;19916;-67
2023/08/01 02:27:27;;;;;;;;;;;;;;;-140.72;100.00;52800.75;5079699;28;19923;-67
2023/08/01 02:29:52;;;;;;;;;;;;;;;-140.72;100.00;52808.88;5066840;28;19927;-67
2023/08/01 02:32:17;;;;;;;;;;;;;;;-140.72;100.00;52823.09;5094757;28;19974;-68
2023/08/01 02:34:43;;;;;;;;;;;;;;;-140.72;100.00;52804.81;5085237;28;20010;-68
2023/08/01 02:37:08;;;;;;;;;;;;;;;-140.72;100.00;52806.84;5080518;28;19969;-68
2023/08/01 02:39:34;;;;;;;;;;;;;;;-140.72;100.00;52814.97;5077733;28;20298;-68
2023/08/01 02:42:00;;;;;;;;;;;;;;;-140.72;100.00;52802.78;5076513;28;20486;-68
2023/08/01 02:44:25;;;;;;;;;;;;;;;-140.72;100.00;52821.06;5086303;28;19961;-67
2023/08/01 02:46:51;;;;;;;;;;;;;;;-140.72;100.00;52800.75;5079671;28;19928;-67
2023/08/01 02:49:16;;;;;;;;;;;;;;;-140.72;100.00;52800.75;5087160;28;19947;-67
2023/08/01 02:51:41;;;;;;;;;;;;;;;-140.72;100.00;52817.00;5084179;28;20053;-67
2023/08/01 02:54:06;;;;;;;;;;;;;;;-140.72;100.00;52776.41;5077039;28;19923;-68
2023/08/01 02:56:32;;;;;;;;;;;;;;;-140.72;100.00;52823.09;5077575;28;20284;-68
2023/08/01 02:58:57;;;;;;;;;;;;;;;-140.72;100.00;52823.09;5078473;28;19917;-68
2023/08/01 03:01:22;;;;;;;;;;;;;;;-140.72;100.00;52814.97;5071469;28;19916;-68
2023/08/01 03:03:48;;;;;;;;;;;;;;;-140.72;100.00;52806.84;5093404;28;19920;-67
2023/08/01 03:06:15;;;;;;;;;;;;;;;-140.72;100.00;52788.59;5092889;28;19966;-68
2023/08/01 03:08:41;;;;;;;;;;;;;;;-140.72;100.00;52792.66;5094200;28;20318;-68
2023/08/01 03:11:06;;;;;;;;;;;;;;;-140.72;100.00;52812.94;5058459;28;19955;-68
2023/08/01 03:13:31;;;;;;;;;;;;;;;-140.72;100.00;52821.06;5076850;28;20313;-68
2023/08/01 03:15:56;;;;;;;;;;;;;;;-140.72;100.00;52821.06;5092465;28;19916;-68
2023/08/01 03:18:22;;;;;;;;;;;;;;;-140.72;100.00;52792.66;5095103;28;20320;-68
2023/08/01 03:20:47;;;;;;;;;;;;;;;-140.72;100.00;52817.00;5093432;28;20391;-67
2023/08/01 03:23:12;;;;;;;;;;;;;;;-140.72;100.00;52825.13;5082805;28;19924;-67
2023/08/01 03:25:37;;;;;;;;;;;;;;;-140.72;100.00;52831.19;5094992;28;19916;-68
2023/08/01 03:28:03;;;;;;;;;;;;;;;-140.72;100.00;52819.03;5086695;28;19916;-68
2023/08/01 03:30:29;;;;;;;;;;;;;;;-140.72;100.00;52790.63;5076638;28;19964;-67
2023/08/01 03:32:54;;;;;;;;;;;;;;;-140.72;100.00;52812.94;5093129;28;19916;-68
2023/08/01 03:35:19;;;;;;;;;;;;;;;-140.72;100.00;52812.94;5094869;28;19927;-67
2023/08/01 03:37:45;;;;;;;;;;;;;;;-140.72;100.00;52800.75;5080480;28;19916;-67
2023/08/01 03:40:10;;;;;;;;;;;;;;;-140.72;100.00;52825.13;5074804;28;19964;-67
2023/08/01 03:42:36;;;;;;;;;;;;;;;-140.72;100.00;52788.59;5088198;28;20350;-67
2023/08/01 03:45:01;;;;;;;;;;;;;;;-140.72;100.00;52817.00;5087484;28;19920;-68
2023/08/01 03:47:26;;;;;;;;;;;;;;;-140.72;100.00;52859.63;5087085;28;19924;-67
2023/08/01 03:49:51;;;;;;;;;;;;;;;-140.72;100.00;52837.28;5076341;28;19917;-67
2023/08/01 03:52:16;;;;;;;;;;;;;;;-140.72;100.00;52790.63;5092082;28;19919;-68
2023/08/01 03:54:42;;;;;;;;;;;;;;;-140.72;100.00;52817.00;5086703;28;20012;-68
2023/08/01 03:57:07;;;;;;;;;;;;;;;-140.72;100.00;52855.56;5087006;28;19947;-68
2023/08/01 03:59:32;;;;;;;;;;;;;;;-140.72;100.00;52798.72;5079257;28;20324;-68
2023/08/01 04:01:57;;;;;;;;;;;;;;;-140.72;100.00;52849.47;5082311;28;19966;-68
2023/08/01 04:04:23;;;;;;;;;;;;;;;-140.72;100.00;52798.72;5093434;28;20289;-67
2023/08/01 04:06:48;;;;;;;;;;;;;;;-140.72;100.00;52772.34;5091396;28;20780;-68
2023/08/01 04:09:13;;;;;;;;;;;;;;;-140.72;100.00;52812.94;5075115;28;19956;-68
2023/08/01 04:11:39;;;;;;;;;;;;;;;-140.72;100.00;52788.59;5092759;28;19930;-68
2023/08/01 04:14:04;;;;;;;;;;;;;;;-140.72;100.00;52810.91;5094125;28;19956;-68
2023/08/01 04:16:29;;;;;;;;;;;;;;;-140.72;100.00;52827.16;5081735;28;19917;-68
2023/08/01 04:18:54;;;;;;;;;;;;;;;-140.72;100.00;52796.72;5092753;28;19920;-68
2023/08/01 04:21:20;;;;;;;;;;;;;;;-140.72;100.00;52808.88;5087585;28;19931;-67
2023/08/01 04:23:45;;;;;;;;;;;;;;;-140.72;100.00;52827.16;5080851;28;19923;-67
2023/08/01 04:26:10;;;;;;;;;;;;;;;-140.72;100.00;52804.81;5091794;28;19920;-67
2023/08/01 04:28:36;;;;;;;;;;;;;;;-140.72;100.00;52800.75;5080490;28;19916;-67
2023/08/01 04:31:01;;;;;;;;;;;;;;;-140.72;100.00;52802.78;5088192;28;19919;-68
2023/08/01 04:33:26;;;;;;;;;;;;;;;-140.72;100.00;52875.84;5057923;28;19960;-67
2023/08/01 04:35:52;;;;;;;;;;;;;;;-140.72;100.00;52800.75;5074008;28;19920;-67
2023/08/01 04:38:17;;;;;;;;;;;;;;;-140.72;100.00;52812.94;5098198;28;20396;-68
2023/08/01 04:40:42;;;;;;;;;;;;;;;-140.72;100.00;52835.25;5101011;28;19916;-68
2023/08/01 04:43:07;;;;;;;;;;;;;;;-140.72;100.00;52823.09;5077632;28;19999;-68
2023/08/01 04:45:33;;;;;;;;;;;;;;;-140.72;100.00;52845.41;5088642;28;19916;-68
2023/08/01 04:47:58;;;;;;;;;;;;;;;-140.72;100.00;52829.19;5079886;28;20012;-67
2023/08/01 04:50:23;;;;;;;;;;;;;;;-140.72;100.00;52843.38;5092717;28;19927;-67
2023/08/01 04:52:49;;;;;;;;;;;;;;;-140.72;100.00;52825.13;5081461;28;19965;-67
2023/08/01 04:55:14;;;;;;;;;;;;;;;-140.72;100.00;52794.69;5083356;28;20021;-68
2023/08/01 04:57:39;;;;;;;;;;;;;;;-140.72;100.00;52802.78;5091985;28;20282;-68
2023/08/01 05:00:05;;;;;;;;;;;;;;;-140.72;100.00;52821.06;5093761;28;19917;-67
2023/08/01 05:02:30;;;;;;;;;;;;;;;-140.72;100.00;52847.44;5077741;28;20054;-67
2023/08/01 05:04:55;;;;;;;;;;;;;;;-140.72;100.00;52833.22;5084549;28;19923;-67
2023/08/01 05:07:21;;;;;;;;;;;;;;;-140.72;100.00;52821.06;5074002;28;19923;-68
2023/08/01 05:09:46;;;;;;;;;;;;;;;-140.72;100.00;52808.88;5087512;28;19963;-68
2023/08/01 05:12:11;;;;;;;;;;;;;;;-140.72;100.00;52806.84;5076921;28;19927;-67
2023/08/01 05:14:36;;;;;;;;;;;;;;;-140.72;100.00;52792.66;5087886;28;19963;-67
2023/08/01 05:17:02;;;;;;;;;;;;;;;-140.72;100.00;52865.69;5090642;28;19916;-67
2023/08/01 05:19:27;;;;;;;;;;;;;;;-140.72;100.00;52823.09;5093137;28;19916;-68
2023/08/01 05:21:52;;;;;;;;;;;;;;;-140.72;100.00;52798.72;5079955;28;19917;-67
2023/08/01 05:24:17;;;;;;;;;;;;;;;-140.72;100.00;52817.00;5090497;28;20003;-67
2023/08/01 05:26:43;;;;;;;;;;;;;;;-140.72;100.00;52790.63;5074157;28;19917;-68
2023/08/01 05:29:08;;;;;;;;;;;;;;;-140.72;100.00;52788.59;5086096;28;20006;-68
2023/08/01 05:31:33;;;;;;;;;;;;;;;-140.72;100.00;52829.19;5087669;28;19962;-68
2023/08/01 05:33:58;;;;;;;;;;;;;;;-140.72;100.00;52837.28;5085078;28;19924;-68
2023/08/01 05:36:23;;;;;;;;;;;;;;;-140.72;100.00;52804.81;5073098;28;19916;-68
2023/08/01 05:38:49;;;;;;;;;;;;;;;-140.72;100.00;52819.03;5073634;28;20369;-68
2023/08/01 05:41:14;;;;;;;;;;;;;;;-140.72;100.00;52800.75;5091819;28;19916;-68
2023/08/01 05:43:39;;;;;;;;;;;;;;;-140.72;100.00;52845.41;5078881;28;20254;-68
2023/08/01 05:46:04;;;;;;;;;;;;;;;-140.72;100.00;52847.44;5081643;28;20278;-67
2023/08/01 05:48:30;;;;;;;;;;;;;;;-140.72;100.00;52782.50;5076746;28;20277;-68
2023/08/01 05:50:55;;;;;;;;;;;;;;;-140.72;100.00;52812.94;5084349;28;20342;-68
2023/08/01 05:53:21;;;;;;;;;;;;;;;-140.72;100.00;52831.19;5082846;28;19927;-68
2023/08/01 05:55:46;;;;;;;;;;;;;;;-140.72;100.00;52810.91;5105450;28;19923;-68
2023/08/01 05:58:11;;;;;;;;;;;;;;;-140.72;100.00;52861.66;5077830;28;19920;-68
2023/08/01 06:00:37;;;;;;;;;;;;;;;-140.72;100.00;52808.88;5061710;28;20429;-68
2023/08/01 06:03:02;;;;;;;;;;;;;;;-140.72;100.00;52792.66;5083975;28;20328;-68
2023/08/01 06:05:27;;;;;;;;;;;;;;;-140.72;100.00;52778.44;5088717;28;19923;-68
2023/08/01 06:07:53;;;;;;;;;;;;;;;-140.72;100.00;52786.56;5075723;28;19916;-68
2023/08/01 06:10:18;;;;;;;;;;;;;;;-140.72;100.00;52784.53;5082292;28;19916;-68
2023/08/01 06:12:43;;;;;;;;;;;;;;;-140.72;100.00;52764.25;5084385;28;19920;-68
2023/08/01 06:15:09;;;;;;;;;;;;;;;-140.72;100.00;52758.16;5120476;27;19916;-68
2023/08/01 06:17:34;;;;;;;;;;;;;;;-140.72;100.00;52776.41;5086430;28;19923;-68
2023/08/01 06:19:59;;;;;;;;;;;;;;;-140.72;100.00;52768.28;5083054;28;19923;-68
2023/08/01 06:22:24;;;;;;;;;;;;;;;-140.72;100.00;52766.25;5088338;28;19921;-69
2023/08/01 06:24:50;;;;;;;;;;;;;;;-140.72;100.00;52735.81;5072697;28;19924;-68
2023/08/01 06:27:15;;;;;;;;;;;;;;;-140.72;100.00;52739.88;5087853;28;20009;-68
2023/08/01 06:29:40;;;;;;;;;;;;;;;-140.72;100.00;52768.28;5089098;28;19958;-68
2023/08/01 06:32:05;;;;;;;;;;;;;;;-140.72;100.00;52741.91;5082898;28;20401;-67
2023/08/01 06:34:31;;;;;;;;;;;;;;;-140.72;100.00;52768.28;5076611;28;19962;-68
2023/08/01 06:36:56;;;;;;;;;;;;;;;-140.72;100.00;52748.00;5089002;28;19916;-68
2023/08/01 06:39:21;;;;;;;;;;;;;;;-140.72;100.00;52715.53;5094202;28;19923;-68
2023/08/01 06:41:46;;;;;;;;;;;;;;;-140.72;100.00;52760.19;5089241;28;19923;-68
2023/08/01 06:44:12;;;;;;;;;;;;;;;-140.72;100.00;52762.22;5089132;28;19916;-68
2023/08/01 06:46:37;;;;;;;;;;;;;;;-140.72;100.00;52745.97;5085600;28;19986;-68
2023/08/01 06:49:02;;;;;;;;;;;;;;;-140.72;100.00;52762.22;5075816;28;19916;-68
2023/08/01 06:51:28;;;;;;;;;;;;;;;-140.72;100.00;52727.72;5085673;28;20361;-68
2023/08/01 06:53:53;;;;;;;;;;;;;;;-140.72;100.00;52739.88;5076772;28;20392;-68
2023/08/01 06:56:18;;;;;;;;;;;;;;;-140.72;100.00;52784.53;5082646;28;20387;-68
2023/08/01 06:58:43;;;;;;;;;;;;;;;-140.72;100.00;52772.34;5082108;28;19920;-68
2023/08/01 07:01:08;;;;;;;;;;;;;;;-140.72;100.00;52810.91;5087497;28;19916;-68
2023/08/01 07:03:34;;;;;;;;;;;;;;;-140.72;100.00;52729.75;5076791;28;19916;-68
2023/08/01 07:05:59;;;;;;;;;;;;;;;-140.72;100.00;52780.47;5087580;28;19931;-68
2023/08/01 07:08:24;;;;;;;;;;;;;;;-140.72;100.00;52772.34;5088928;28;19917;-68
2023/08/01 07:10:49;;;;;;;;;;;;;;;-140.72;100.00;52796.72;5094041;28;19923;-68
2023/08/01 07:13:16;;;;;;;;;;;;;;;-140.72;100.00;52731.75;5068742;28;19947;-68
2023/08/01 07:15:41;;;;;;;;;;;;;;;-140.72;100.00;52766.25;5090315;28;19920;-68
2023/08/01 07:18:06;;;;;;;;;;;;;;;-140.72;100.00;52770.31;5090780;28;20373;-68
2023/08/01 07:20:31;;;;;;;;;;;;;;;-140.72;100.00;52719.59;5092547;28;19920;-68
2023/08/01 07:22:57;;;;;;;;;;;;;;;-140.72;100.00;52752.06;5083747;28;19916;-68
2023/08/01 07:25:22;;;;;;;;;;;;;;;-140.72;100.00;52715.53;5092312;28;19916;-70
2023/08/01 07:27:47;;;;;;;;;;;;;;;-140.72;100.00;52735.81;5094632;28;19924;-68
2023/08/01 07:30:13;;;;;;;;;;;;;;;-140.72;100.00;52709.44;5086482;28;19920;-68
2023/08/01 07:32:38;;;;;;;;;;;;;;;-140.72;100.00;52743.94;5089809;28;19924;-68
2023/08/01 07:35:07;;;;;;;;;;;;;;;-140.72;100.00;52660.75;5088871;28;19916;-68
2023/08/01 07:37:33;;;;;;;;;;;;;;;-140.72;100.00;52723.66;5070368;28;19916;-68
2023/08/01 07:39:58;;;;;;;;;;;;;;;-140.72;100.00;52727.72;5080084;28;19942;-68
2023/08/01 07:42:23;;;;;;;;;;;;;;;-140.72;100.00;52699.31;5085313;28;20010;-68
2023/08/01 07:44:49;;;;;;;;;;;;;;;-140.72;100.00;52705.38;5084645;28;20001;-69
2023/08/01 07:47:14;;;;;;;;;;;;;;;-140.72;100.00;52711.47;5083680;28;19920;-68
2023/08/01 07:49:39;;;;;;;;;;;;;;;-140.72;100.00;52679.00;5088281;28;19969;-68
2023/08/01 07:52:04;;;;;;;;;;;;;;;-140.72;100.00;52687.13;5090459;28;19919;-68
2023/08/01 07:54:30;;;;;;;;;;;;;;;-140.72;100.00;52703.34;5089172;28;20324;-69
2023/08/01 07:56:55;;;;;;;;;;;;;;;-140.72;100.00;52731.75;5084191;28;19917;-69
2023/08/01 07:59:20;;;;;;;;;;;;;;;-140.72;100.00;52691.19;5084555;28;19917;-68
2023/08/01 08:01:45;;;;;;;;;;;;;;;-140.72;100.00;52695.25;5092411;28;20350;-69
2023/08/01 08:04:11;;;;;;;;;;;;;;;-140.72;100.00;52685.09;5060746;28;20435;-68
2023/08/01 08:06:36;;;;;;;;;;;;;;;-140.72;100.00;52672.91;5081363;28;19916;-69
2023/08/01 08:09:01;;;;;;;;;;;;;;;-140.72;100.00;52676.97;5083566;28;19929;-69
2023/08/01 08:11:27;;;;;;;;;;;;;;;-140.72;100.00;52685.09;5093360;28;19931;-69
2023/08/01 08:13:52;;;;;;;;;;;;;;;-140.72;100.00;52652.63;5089150;28;20359;-69
2023/08/01 08:16:17;;;;;;;;;;;;;;;-140.72;100.00;52632.34;5074552;28;19952;-69
2023/08/01 08:18:42;;;;;;;;;;;;;;;-140.72;100.00;52662.78;5083589;28;20010;-69
2023/08/01 08:21:07;;;;;;;;;;;;;;;-140.72;100.00;52638.41;5083707;28;19920;-69
2023/08/01 08:23:33;;;;;;;;;;;;;;;-140.72;100.00;52642.47;5092625;28;20330;-69
2023/08/01 08:25:58;;;;;;;;;;;;;;;-140.72;100.00;52591.75;5092680;28;19985;-69
2023/08/01 08:28:30;;;;;;;;;;;;;;;-140.72;100.00;52620.16;5091966;28;20343;-69
2023/08/01 08:30:56;;;;;;;;;;;;;;;-140.72;100.00;52642.47;5082607;28;19920;-69
2023/08/01 08:33:21;;;;;;;;;;;;;;;-140.72;100.00;52654.66;5092710;28;19970;-69
2023/08/01 08:35:46;;;;;;;;;;;;;;;-140.72;100.00;52693.22;5082875;28;20011;-69
2023/08/01 08:38:12;;;;;;;;;;;;;;;-140.72;100.00;52731.75;5087684;28;20339;-69
2023/08/01 08:40:41;;;;;;;;;;;;;;;-140.72;100.00;52721.63;5077923;28;19977;-69
2023/08/01 08:43:06;;;;;;;;;;;;;;;-140.72;100.00;52715.53;5087075;28;20340;-69
2023/08/01 08:45:35;;;;;;;;;;;;;;;-140.72;100.00;52695.25;5088344;28;19920;-69
2023/08/01 08:48:02;;;;;;;;;;;;;;;-140.72;100.00;52711.47;5081899;28;19920;-69
2023/08/01 08:50:29;;;;;;;;;;;;;;;-140.72;100.00;52646.53;5082294;28;20406;-69
2023/08/01 08:52:54;;;;;;;;;;;;;;;-140.72;100.00;52616.09;5059284;28;19921;-69
2023/08/01 08:55:22;;;;;;;;;;;;;;;-140.72;100.00;52636.38;5088336;28;20507;-69
2023/08/01 08:57:50;;;;;;;;;;;;;;;-140.72;100.00;52640.44;5082546;28;19916;-69
2023/08/01 09:00:16;;;;;;;;;;;;;;;-140.72;100.00;52638.41;5081572;28;19916;-69
2023/08/01 09:02:41;;;;;;;;;;;;;;;-140.72;100.00;52601.91;5066793;28;20331;-69
2023/08/01 09:05:07;;;;;;;;;;;;;;;-140.72;100.00;52597.84;5074662;28;20443;-69
2023/08/01 09:07:34;;;;;;;;;;;;;;;-140.72;100.00;52595.81;5084198;28;20262;-69
2023/08/01 09:09:59;;;;;;;;;;;;;;;-140.72;100.00;52530.88;5092787;28;20289;-69
2023/08/01 09:12:25;;;;;;;;;;;;;;;-140.72;100.00;52607.97;5074592;28;19916;-69
2023/08/01 09:14:50;;;;;;;;;;;;;;;-140.72;100.00;52646.53;5077887;28;20405;-69
2023/08/01 09:17:18;;;;;;;;;;;;;;;-140.72;100.00;52614.06;5091015;28;20282;-69
2023/08/01 09:19:43;;;;;;;;;;;;;;;-140.72;100.00;52610.00;5085365;28;19916;-69
2023/08/01 09:22:12;;;;;;;;;;;;;;;-140.72;100.00;52642.47;5090201;28;19931;-69
2023/08/01 09:24:37;;;;;;;;;;;;;;;-140.72;100.00;52569.44;5080533;28;19920;-69
2023/08/01 09:27:04;;;;;;;;;;;;;;;-140.72;100.00;52603.94;5080770;28;19917;-69
2023/08/01 09:29:31;;;;;;;;;;;;;;;-140.72;100.00;52628.28;5084497;28;19916;-69
2023/08/01 09:31:56;;;;;;;;;;;;;;;-140.72;100.00;52593.78;5096360;28;19920;-69
2023/08/01 09:34:23;;;;;;;;;;;;;;;-140.72;100.00;52524.78;5086466;28;19916;-69
2023/08/01 09:36:49;;;;;;;;;;;;;;;-140.72;100.00;52484.19;5095916;28;19965;-69
2023/08/01 09:39:19;;;;;;;;;;;;;;;-140.72;100.00;52547.09;5085868;28;19916;-69
2023/08/01 09:41:44;;;;;;;;;;;;;;;-140.72;79.86;52551.16;5096394;28;20015;-69
2023/08/01 09:44:16;;;;;;;;;;;;;;;-140.72;88.82;52575.50;5093212;28;20038;-69
2023/08/01 09:46:42;;;;;;;;;;;;;;;-140.72;100.00;52504.50;5087129;28;19973;-69
2023/08/01 09:49:10;;;;;;;;;;;;;;;-140.72;60.18;52514.63;5093968;28;19980;-69
2023/08/01 09:51:56;;;;;;;;;;;;;;;-140.72;24.16;52484.19;5085800;28;20011;-69
2023/08/01 09:54:22;;;;;;;;;;;;;;;-140.72;0.00;52472.03;5094630;28;19916;-69
2023/08/01 09:56:49;;;;;;;;;;;;;;;-140.72;0.00;52429.41;5065979;28;20286;-69
2023/08/01 09:59:18;;;;;;;;;;;;;;;-140.72;0.00;52413.19;5077502;28;19928;-69
2023/08/01 10:01:44;;;;;;;;;;;;;;;-140.72;0.00;52411.16;5079033;28;19916;-70
2023/08/01 10:04:10;;;;;;;;;;;;;;;-140.72;0.00;52390.84;5084688;28;20007;-69
2023/08/01 10:06:37;;;;;;;;;;;;;;;-140.72;0.00;52490.28;5090853;28;19977;-69
2023/08/01 10:09:02;;;;;;;;;;;;;;;-140.72;0.00;52486.22;5072938;28;19920;-69
2023/08/01 10:11:29;;;;;;;;;;;;;;;-140.72;0.00;52528.84;5095704;28;19923;-69
2023/08/01 10:13:55;;;;;;;;;;;;;;;-140.72;0.00;52488.25;5077006;28;19999;-69
2023/08/01 10:16:21;;;;;;;;;;;;;;;-140.72;0.00;52451.72;5069649;28;19966;-69
2023/08/01 10:18:47;;;;;;;;;;;;;;;-140.72;0.00;52374.63;5090645;28;19916;-69
2023/08/01 10:21:13;;;;;;;;;;;;;;;-140.72;0.00;52425.34;5107600;28;19923;-69
2023/08/01 10:23:39;;;;;;;;;;;;;;;-140.72;0.00;52419.28;5089849;28;19916;-69
2023/08/01 10:26:06;;;;;;;;;;;;;;;-140.72;0.00;52435.50;5082794;28;20434;-69
2023/08/01 10:28:35;;;;;;;;;;;;;;;-140.72;0.00;52299.56;5089723;28;20385;-69
2023/08/01 10:31:13;;;;;;;;;;;;;;;-140.72;0.00;52530.88;5091462;28;19920;-69
2023/08/01 10:33:39;;;;;;;;;;;;;;;-140.72;0.00;52415.22;5086543;28;20018;-69
2023/08/01 10:36:12;;;;;;;;;;;;;;;-140.72;0.00;52490.28;5094333;28;19961;-69
2023/08/01 10:38:44;;;;;;;;;;;;;;;-140.72;0.00;52492.31;5086655;28;20290;-69
2023/08/01 10:41:18;;;;;;;;;;;;;;;-140.72;0.00;52392.88;5078688;28;19947;-69
2023/08/01 10:43:43;;;;;;;;;;;;;;;-140.72;0.00;52372.59;5089474;28;19916;-69
2023/08/01 10:46:08;;;;;;;;;;;;;;;-140.72;0.00;52549.13;5094875;28;19916;-69
2023/08/01 10:48:34;;;;;;;;;;;;;;;-140.72;0.00;52384.78;5079813;28;19916;-70
2023/08/01 10:50:59;;;;;;;;;;;;;;;-140.72;0.00;52496.38;5084135;28;19916;-69
2023/08/01 10:53:24;;;;;;;;;;;;;;;-140.72;0.00;52551.16;5095979;28;19951;-69
2023/08/01 10:55:49;;;;;;;;;;;;;;;-140.72;0.00;52589.72;5092587;28;20100;-69
2023/08/01 10:58:15;;;;;;;;;;;;;;;-140.72;0.00;52642.47;5079440;28;19916;-69
2023/08/01 11:00:43;;;;;;;;;;;;;;;-140.72;100.00;52685.09;5083226;28;19963;-69
2023/08/01 11:03:09;;;;;;;;;;;;;;;-140.72;100.00;52693.22;5083815;28;19917;-68
2023/08/01 11:05:34;;;;;;;;;;;;;;;-140.72;100.00;52676.97;5082387;28;19995;-69
2023/08/01 11:08:00;;;;;;;;;;;;;;;-140.72;100.00;52654.66;5081067;28;19924;-69
2023/08/01 11:10:26;;;;;;;;;;;;;;;-140.72;100.00;52713.50;5085471;28;19916;-69
2023/08/01 11:12:53;;;;;;;;;;;;;;;-140.72;100.00;52711.47;5079988;28;19920;-69
2023/08/01 11:15:18;;;;;;;;;;;;;;;-140.72;100.00;52674.94;5086187;28;20406;-69
2023/08/01 11:17:47;;;;;;;;;;;;;;;-140.72;100.00;52683.06;5080509;28;20007;-69
2023/08/01 11:20:13;;;;;;;;;;;;;;;-140.72;100.00;52689.16;5083337;28;19947;-69
2023/08/01 11:22:48;;;;;;;;;;;;;;;-140.72;100.00;52666.84;5078208;28;19962;-68
2023/08/01 11:25:14;;;;;;;;;;;;;;;-140.72;100.00;52697.28;5083387;28;20334;-68
2023/08/01 11:27:39;;;;;;;;;;;;;;;-140.72;100.00;52697.28;5093824;28;20007;-68
2023/08/01 11:30:04;;;;;;;;;;;;;;;-140.72;100.00;52676.97;5089710;28;20389;-70
2023/08/01 11:32:34;;;;;;;;;;;;;;;-140.72;100.00;52632.34;5063743;28;19967;-68
2023/08/01 11:35:00;;;;;;;;;;;;;;;-140.72;100.00;52480.16;5089373;28;20283;-68
2023/08/01 11:37:26;;;;;;;;;;;;;;;-140.72;100.00;52390.84;5076041;28;19924;-68
2023/08/01 11:39:51;;;;;;;;;;;;;;;-140.72;0.00;52261.00;5061104;28;19921;-67
2023/08/01 11:42:16;;;;;;;;;;;;;;;-140.72;0.00;52321.88;5087402;28;20451;-68
2023/08/01 11:44:42;;;;;;;;;;;;;;;-140.72;0.00;52311.72;5076053;28;19923;-69
2023/08/01 11:47:12;;;;;;;;;;;;;;;-140.72;0.00;52224.47;5075464;28;19958;-69
2023/08/01 11:49:37;;;;;;;;;;;;;;;-140.72;0.00;52362.44;5057460;28;19920;-69
2023/08/01 11:52:02;;;;;;;;;;;;;;;-140.72;0.00;52461.88;5087366;28;19970;-68
2023/08/01 11:54:28;;;;;;;;;;;;;;;-140.72;0.00;52557.25;5074423;28;19991;-68
2023/08/01 11:57:00;;;;;;;;;;;;;;;-140.72;0.00;52591.75;5087001;28;20006;-68
2023/08/01 11:59:25;;;;;;;;;;;;;;;-140.72;0.00;52465.94;5073731;28;20378;-69
2023/08/01 12:01:50;;;;;;;;;;;;;;;-140.72;0.00;52488.25;5087779;28;19955;-68
2023/08/01 12:04:25;;;;;;;;;;;;;;;-140.72;0.00;52488.25;5093458;28;20377;-69
2023/08/01 12:06:51;;;;;;;;;;;;;;;-140.72;0.00;52443.63;5093143;28;20323;-69
2023/08/01 12:09:16;;;;;;;;;;;;;;;-140.72;0.00;52500.44;5081651;28;19984;-69
2023/08/01 12:11:41;;;;;;;;;;;;;;;-140.72;0.00;52565.38;5091670;28;19923;-70
2023/08/01 12:14:16;;;;;;;;;;;;;;;-140.72;0.00;52589.72;5066635;28;19971;-69